sensor_id;sensor_type;location;lat;lon;timestamp;P1;durP1;ratioP1;P2;durP2;ratioP2
17915;SDS011;9083;49.156;8.982;2022-10-17T00:01:12;3.57;;;2.40;;
17915;SDS011;9083;49.156;8.982;2022-10-17T00:03:39;2.87;;;2.20;;
17915;SDS011;9083;49.156;8.982;2022-10-17T00:06:06;2.63;;;2.43;;
17915;SDS011;9083;49.156;8.982;2022-10-17T00:08:33;3.30;;;2.33;;
17915;SDS011;9083;49.156;8.982;2022-10-17T00:11:00;4.43;;;2.53;;
17915;SDS011;9083;49.156;8.982;2022-10-17T00:13:27;2.87;;;2.40;;
17915;SDS011;9083;49.156;8.982;2022-10-17T00:15:53;2.27;;;2.07;;
17915;SDS011;9083;49.156;8.982;2022-10-17T00:18:20;4.00;;;2.30;;
17915;SDS011;9083;49.156;8.982;2022-10-17T00:20:48;8.20;;;2.23;;
17915;SDS011;9083;49.156;8.982;2022-10-17T00:23:14;2.67;;;2.47;;
17915;SDS011;9083;49.156;8.982;2022-10-17T00:25:40;3.73;;;3.07;;
17915;SDS011;9083;49.156;8.982;2022-10-17T00:28:07;3.27;;;2.50;;
17915;SDS011;9083;49.156;8.982;2022-10-17T00:30:34;6.63;;;2.60;;
17915;SDS011;9083;49.156;8.982;2022-10-17T00:33:00;4.13;;;2.40;;
17915;SDS011;9083;49.156;8.982;2022-10-17T00:35:27;6.00;;;2.50;;
17915;SDS011;9083;49.156;8.982;2022-10-17T00:37:55;6.50;;;2.67;;
17915;SDS011;9083;49.156;8.982;2022-10-17T00:40:21;4.47;;;2.90;;
17915;SDS011;9083;49.156;8.982;2022-10-17T00:42:48;3.13;;;2.20;;
17915;SDS011;9083;49.156;8.982;2022-10-17T00:45:20;7.87;;;2.03;;
17915;SDS011;9083;49.156;8.982;2022-10-17T00:47:47;2.30;;;1.97;;
17915;SDS011;9083;49.156;8.982;2022-10-17T00:50:15;2.87;;;2.47;;
17915;SDS011;9083;49.156;8.982;2022-10-17T00:52:42;7.00;;;2.90;;
17915;SDS011;9083;49.156;8.982;2022-10-17T00:55:13;7.20;;;2.47;;
17915;SDS011;9083;49.156;8.982;2022-10-17T00:57:40;3.67;;;2.30;;
17915;SDS011;9083;49.156;8.982;2022-10-17T01:00:07;3.73;;;2.53;;
17915;SDS011;9083;49.156;8.982;2022-10-17T01:02:34;2.33;;;2.13;;
17915;SDS011;9083;49.156;8.982;2022-10-17T01:05:00;5.23;;;2.47;;
17915;SDS011;9083;49.156;8.982;2022-10-17T01:07:28;2.23;;;2.03;;
17915;SDS011;9083;49.156;8.982;2022-10-17T01:09:55;2.77;;;2.30;;
17915;SDS011;9083;49.156;8.982;2022-10-17T01:12:23;3.57;;;2.10;;
17915;SDS011;9083;49.156;8.982;2022-10-17T01:14:56;2.60;;;2.00;;
17915;SDS011;9083;49.156;8.982;2022-10-17T01:17:27;4.93;;;1.90;;
17915;SDS011;9083;49.156;8.982;2022-10-17T01:19:59;7.40;;;2.40;;
17915;SDS011;9083;49.156;8.982;2022-10-17T01:22:32;5.40;;;2.03;;
17915;SDS011;9083;49.156;8.982;2022-10-17T01:25:05;2.57;;;2.37;;
17915;SDS011;9083;49.156;8.982;2022-10-17T01:27:50;3.90;;;2.40;;
17915;SDS011;9083;49.156;8.982;2022-10-17T01:30:23;2.70;;;1.90;;
17915;SDS011;9083;49.156;8.982;2022-10-17T01:32:56;4.87;;;2.33;;
17915;SDS011;9083;49.156;8.982;2022-10-17T01:35:24;2.60;;;2.20;;
17915;SDS011;9083;49.156;8.982;2022-10-17T01:37:53;4.03;;;2.20;;
17915;SDS011;9083;49.156;8.982;2022-10-17T01:40:21;7.23;;;2.67;;
17915;SDS011;9083;49.156;8.982;2022-10-17T01:42:51;6.80;;;2.40;;
17915;SDS011;9083;49.156;8.982;2022-10-17T01:45:20;2.33;;;1.90;;
17915;SDS011;9083;49.156;8.982;2022-10-17T01:47:51;11.77;;;2.30;;
17915;SDS011;9083;49.156;8.982;2022-10-17T01:50:21;5.37;;;2.00;;
17915;SDS011;9083;49.156;8.982;2022-10-17T01:52:49;3.77;;;2.07;;
17915;SDS011;9083;49.156;8.982;2022-10-17T01:55:17;4.83;;;1.90;;
17915;SDS011;9083;49.156;8.982;2022-10-17T01:57:46;2.13;;;2.03;;
17915;SDS011;9083;49.156;8.982;2022-10-17T02:00:16;2.37;;;1.90;;
17915;SDS011;9083;49.156;8.982;2022-10-17T02:02:43;2.77;;;2.13;;
17915;SDS011;9083;49.156;8.982;2022-10-17T02:05:11;2.20;;;1.80;;
17915;SDS011;9083;49.156;8.982;2022-10-17T02:07:40;5.13;;;2.97;;
17915;SDS011;9083;49.156;8.982;2022-10-17T02:10:08;5.33;;;2.80;;
17915;SDS011;9083;49.156;8.982;2022-10-17T02:12:41;12.50;;;2.73;;
17915;SDS011;9083;49.156;8.982;2022-10-17T02:17:56;4.93;;;4.43;;
17915;SDS011;9083;49.156;8.982;2022-10-17T02:20:27;5.97;;;3.83;;
17915;SDS011;9083;49.156;8.982;2022-10-17T02:23:00;8.83;;;4.73;;
17915;SDS011;9083;49.156;8.982;2022-10-17T02:25:30;9.73;;;5.73;;
17915;SDS011;9083;49.156;8.982;2022-10-17T02:28:00;6.70;;;5.93;;
17915;SDS011;9083;49.156;8.982;2022-10-17T02:30:31;7.40;;;5.67;;
17915;SDS011;9083;49.156;8.982;2022-10-17T02:33:00;11.23;;;6.37;;
17915;SDS011;9083;49.156;8.982;2022-10-17T02:35:28;7.07;;;5.60;;
17915;SDS011;9083;49.156;8.982;2022-10-17T02:37:55;8.47;;;4.70;;
17915;SDS011;9083;49.156;8.982;2022-10-17T02:40:23;7.57;;;4.60;;
17915;SDS011;9083;49.156;8.982;2022-10-17T02:42:51;7.67;;;5.00;;
17915;SDS011;9083;49.156;8.982;2022-10-17T02:45:19;8.57;;;4.87;;
17915;SDS011;9083;49.156;8.982;2022-10-17T02:47:49;9.57;;;4.83;;
17915;SDS011;9083;49.156;8.982;2022-10-17T02:50:15;6.97;;;4.80;;
17915;SDS011;9083;49.156;8.982;2022-10-17T02:52:44;4.80;;;4.40;;
17915;SDS011;9083;49.156;8.982;2022-10-17T02:55:13;6.20;;;4.53;;
17915;SDS011;9083;49.156;8.982;2022-10-17T02:57:45;4.33;;;4.00;;
17915;SDS011;9083;49.156;8.982;2022-10-17T03:00:13;10.00;;;4.47;;
17915;SDS011;9083;49.156;8.982;2022-10-17T03:02:41;9.37;;;3.53;;
17915;SDS011;9083;49.156;8.982;2022-10-17T03:05:08;6.27;;;3.50;;
17915;SDS011;9083;49.156;8.982;2022-10-17T03:07:34;6.83;;;3.17;;
17915;SDS011;9083;49.156;8.982;2022-10-17T03:10:01;7.60;;;3.17;;
17915;SDS011;9083;49.156;8.982;2022-10-17T03:12:27;8.70;;;3.43;;
17915;SDS011;9083;49.156;8.982;2022-10-17T03:14:55;5.53;;;3.03;;
17915;SDS011;9083;49.156;8.982;2022-10-17T03:17:21;3.43;;;3.07;;
17915;SDS011;9083;49.156;8.982;2022-10-17T03:19:48;4.10;;;2.90;;
17915;SDS011;9083;49.156;8.982;2022-10-17T03:22:14;4.70;;;2.70;;
17915;SDS011;9083;49.156;8.982;2022-10-17T03:24:41;3.53;;;2.97;;
17915;SDS011;9083;49.156;8.982;2022-10-17T03:27:07;3.47;;;2.97;;
17915;SDS011;9083;49.156;8.982;2022-10-17T03:29:34;4.83;;;3.13;;
17915;SDS011;9083;49.156;8.982;2022-10-17T03:32:01;12.17;;;4.30;;
17915;SDS011;9083;49.156;8.982;2022-10-17T03:34:28;6.23;;;3.20;;
17915;SDS011;9083;49.156;8.982;2022-10-17T03:36:54;3.67;;;3.10;;
17915;SDS011;9083;49.156;8.982;2022-10-17T03:39:24;7.70;;;3.30;;
17915;SDS011;9083;49.156;8.982;2022-10-17T03:41:50;6.40;;;3.50;;
17915;SDS011;9083;49.156;8.982;2022-10-17T03:44:17;7.73;;;3.40;;
17915;SDS011;9083;49.156;8.982;2022-10-17T03:46:43;6.57;;;3.27;;
17915;SDS011;9083;49.156;8.982;2022-10-17T03:49:11;10.77;;;4.33;;
17915;SDS011;9083;49.156;8.982;2022-10-17T03:51:38;12.13;;;4.80;;
17915;SDS011;9083;49.156;8.982;2022-10-17T03:54:04;4.80;;;3.77;;
17915;SDS011;9083;49.156;8.982;2022-10-17T03:56:31;8.87;;;3.60;;
17915;SDS011;9083;49.156;8.982;2022-10-17T03:58:57;7.93;;;3.80;;
17915;SDS011;9083;49.156;8.982;2022-10-17T04:01:23;8.23;;;3.67;;
17915;SDS011;9083;49.156;8.982;2022-10-17T04:03:50;7.57;;;3.53;;
17915;SDS011;9083;49.156;8.982;2022-10-17T04:06:18;5.30;;;3.80;;
17915;SDS011;9083;49.156;8.982;2022-10-17T04:08:45;9.20;;;4.40;;
17915;SDS011;9083;49.156;8.982;2022-10-17T04:11:13;5.67;;;3.67;;
17915;SDS011;9083;49.156;8.982;2022-10-17T04:13:40;5.90;;;4.03;;
17915;SDS011;9083;49.156;8.982;2022-10-17T04:16:07;9.53;;;4.07;;
17915;SDS011;9083;49.156;8.982;2022-10-17T04:18:33;4.37;;;3.73;;
17915;SDS011;9083;49.156;8.982;2022-10-17T04:21:00;6.73;;;3.73;;
17915;SDS011;9083;49.156;8.982;2022-10-17T04:23:28;12.03;;;4.13;;
17915;SDS011;9083;49.156;8.982;2022-10-17T04:25:54;8.80;;;3.80;;
17915;SDS011;9083;49.156;8.982;2022-10-17T04:28:21;8.20;;;3.93;;
17915;SDS011;9083;49.156;8.982;2022-10-17T04:30:54;9.70;;;4.80;;
17915;SDS011;9083;49.156;8.982;2022-10-17T04:33:20;5.97;;;4.00;;
17915;SDS011;9083;49.156;8.982;2022-10-17T04:35:53;5.00;;;4.03;;
17915;SDS011;9083;49.156;8.982;2022-10-17T04:38:19;8.17;;;4.20;;
17915;SDS011;9083;49.156;8.982;2022-10-17T04:40:47;4.03;;;3.63;;
17915;SDS011;9083;49.156;8.982;2022-10-17T04:43:14;7.33;;;3.73;;
17915;SDS011;9083;49.156;8.982;2022-10-17T04:45:40;6.70;;;3.77;;
17915;SDS011;9083;49.156;8.982;2022-10-17T04:48:06;6.50;;;3.37;;
17915;SDS011;9083;49.156;8.982;2022-10-17T04:50:33;6.13;;;4.17;;
17915;SDS011;9083;49.156;8.982;2022-10-17T04:52:59;3.70;;;3.33;;
17915;SDS011;9083;49.156;8.982;2022-10-17T04:55:26;11.00;;;4.03;;
17915;SDS011;9083;49.156;8.982;2022-10-17T04:57:54;5.13;;;3.97;;
17915;SDS011;9083;49.156;8.982;2022-10-17T05:00:20;8.77;;;3.77;;
17915;SDS011;9083;49.156;8.982;2022-10-17T05:02:46;9.70;;;4.20;;
17915;SDS011;9083;49.156;8.982;2022-10-17T05:05:13;8.57;;;4.20;;
17915;SDS011;9083;49.156;8.982;2022-10-17T05:07:39;6.60;;;4.23;;
17915;SDS011;9083;49.156;8.982;2022-10-17T05:10:06;10.53;;;3.47;;
17915;SDS011;9083;49.156;8.982;2022-10-17T05:12:33;5.83;;;3.40;;
17915;SDS011;9083;49.156;8.982;2022-10-17T05:15:01;7.60;;;3.80;;
17915;SDS011;9083;49.156;8.982;2022-10-17T05:17:27;8.30;;;3.63;;
17915;SDS011;9083;49.156;8.982;2022-10-17T05:19:54;5.40;;;3.53;;
17915;SDS011;9083;49.156;8.982;2022-10-17T05:22:20;4.10;;;3.70;;
17915;SDS011;9083;49.156;8.982;2022-10-17T05:24:46;9.97;;;3.80;;
17915;SDS011;9083;49.156;8.982;2022-10-17T05:27:13;6.20;;;3.70;;
17915;SDS011;9083;49.156;8.982;2022-10-17T05:29:39;5.70;;;3.33;;
17915;SDS011;9083;49.156;8.982;2022-10-17T05:32:07;6.03;;;3.33;;
17915;SDS011;9083;49.156;8.982;2022-10-17T05:34:33;7.37;;;3.80;;
17915;SDS011;9083;49.156;8.982;2022-10-17T05:37:00;6.67;;;3.80;;
17915;SDS011;9083;49.156;8.982;2022-10-17T05:39:26;6.60;;;3.43;;
17915;SDS011;9083;49.156;8.982;2022-10-17T05:41:53;9.00;;;3.97;;
17915;SDS011;9083;49.156;8.982;2022-10-17T05:44:19;8.57;;;3.73;;
17915;SDS011;9083;49.156;8.982;2022-10-17T05:46:46;12.27;;;3.50;;
17915;SDS011;9083;49.156;8.982;2022-10-17T05:49:14;5.27;;;3.60;;
17915;SDS011;9083;49.156;8.982;2022-10-17T05:51:41;3.87;;;3.40;;
17915;SDS011;9083;49.156;8.982;2022-10-17T05:54:07;6.83;;;3.37;;
17915;SDS011;9083;49.156;8.982;2022-10-17T05:56:34;13.23;;;3.90;;
17915;SDS011;9083;49.156;8.982;2022-10-17T05:59:01;6.30;;;3.37;;
17915;SDS011;9083;49.156;8.982;2022-10-17T06:01:27;6.77;;;3.13;;
17915;SDS011;9083;49.156;8.982;2022-10-17T06:03:54;3.37;;;3.07;;
17915;SDS011;9083;49.156;8.982;2022-10-17T06:06:22;4.80;;;3.00;;
17915;SDS011;9083;49.156;8.982;2022-10-17T06:08:48;10.33;;;3.53;;
17915;SDS011;9083;49.156;8.982;2022-10-17T06:11:15;8.03;;;2.93;;
17915;SDS011;9083;49.156;8.982;2022-10-17T06:13:41;6.50;;;3.20;;
17915;SDS011;9083;49.156;8.982;2022-10-17T06:16:08;6.63;;;3.00;;
17915;SDS011;9083;49.156;8.982;2022-10-17T06:18:34;6.23;;;3.10;;
17915;SDS011;9083;49.156;8.982;2022-10-17T06:21:01;9.00;;;2.87;;
17915;SDS011;9083;49.156;8.982;2022-10-17T06:23:29;11.10;;;3.47;;
17915;SDS011;9083;49.156;8.982;2022-10-17T06:25:57;5.87;;;2.83;;
17915;SDS011;9083;49.156;8.982;2022-10-17T06:28:23;6.87;;;3.13;;
17915;SDS011;9083;49.156;8.982;2022-10-17T06:30:50;6.67;;;3.73;;
17915;SDS011;9083;49.156;8.982;2022-10-17T06:33:16;5.57;;;3.07;;
17915;SDS011;9083;49.156;8.982;2022-10-17T06:35:42;6.73;;;3.57;;
17915;SDS011;9083;49.156;8.982;2022-10-17T06:38:09;11.93;;;3.23;;
17915;SDS011;9083;49.156;8.982;2022-10-17T06:40:37;12.57;;;3.90;;
17915;SDS011;9083;49.156;8.982;2022-10-17T06:43:03;13.53;;;3.70;;
17915;SDS011;9083;49.156;8.982;2022-10-17T06:45:29;9.63;;;3.40;;
17915;SDS011;9083;49.156;8.982;2022-10-17T06:47:56;9.63;;;3.60;;
17915;SDS011;9083;49.156;8.982;2022-10-17T06:50:22;8.60;;;2.97;;
17915;SDS011;9083;49.156;8.982;2022-10-17T06:52:49;4.17;;;3.27;;
17915;SDS011;9083;49.156;8.982;2022-10-17T06:55:16;6.30;;;3.20;;
17915;SDS011;9083;49.156;8.982;2022-10-17T06:57:43;6.70;;;2.90;;
17915;SDS011;9083;49.156;8.982;2022-10-17T07:00:10;4.07;;;3.10;;
17915;SDS011;9083;49.156;8.982;2022-10-17T07:02:37;5.47;;;4.97;;
17915;SDS011;9083;49.156;8.982;2022-10-17T07:05:04;10.00;;;4.70;;
17915;SDS011;9083;49.156;8.982;2022-10-17T07:07:31;6.90;;;4.60;;
17915;SDS011;9083;49.156;8.982;2022-10-17T07:09:57;7.03;;;4.07;;
17915;SDS011;9083;49.156;8.982;2022-10-17T07:12:24;5.60;;;3.57;;
17915;SDS011;9083;49.156;8.982;2022-10-17T07:14:52;5.53;;;3.43;;
17915;SDS011;9083;49.156;8.982;2022-10-17T07:17:18;9.23;;;3.83;;
17915;SDS011;9083;49.156;8.982;2022-10-17T07:19:47;11.23;;;3.47;;
17915;SDS011;9083;49.156;8.982;2022-10-17T07:22:14;4.53;;;3.50;;
17915;SDS011;9083;49.156;8.982;2022-10-17T07:24:40;6.57;;;4.20;;
17915;SDS011;9083;49.156;8.982;2022-10-17T07:27:07;13.10;;;3.53;;
17915;SDS011;9083;49.156;8.982;2022-10-17T07:29:33;7.20;;;3.80;;
17915;SDS011;9083;49.156;8.982;2022-10-17T07:32:01;6.00;;;3.10;;
17915;SDS011;9083;49.156;8.982;2022-10-17T07:34:32;10.70;;;3.50;;
17915;SDS011;9083;49.156;8.982;2022-10-17T07:36:59;5.33;;;3.27;;
17915;SDS011;9083;49.156;8.982;2022-10-17T07:39:25;4.93;;;3.13;;
17915;SDS011;9083;49.156;8.982;2022-10-17T07:41:52;6.70;;;3.30;;
17915;SDS011;9083;49.156;8.982;2022-10-17T07:44:18;3.70;;;3.40;;
17915;SDS011;9083;49.156;8.982;2022-10-17T07:46:45;11.47;;;3.97;;
17915;SDS011;9083;49.156;8.982;2022-10-17T07:49:13;6.40;;;3.33;;
17915;SDS011;9083;49.156;8.982;2022-10-17T07:51:39;6.07;;;3.33;;
17915;SDS011;9083;49.156;8.982;2022-10-17T07:54:06;4.00;;;3.33;;
17915;SDS011;9083;49.156;8.982;2022-10-17T07:56:32;4.07;;;2.90;;
17915;SDS011;9083;49.156;8.982;2022-10-17T07:58:58;5.10;;;3.20;;
17915;SDS011;9083;49.156;8.982;2022-10-17T08:01:25;6.50;;;3.40;;
17915;SDS011;9083;49.156;8.982;2022-10-17T08:03:52;3.53;;;3.00;;
17915;SDS011;9083;49.156;8.982;2022-10-17T08:06:20;4.10;;;3.07;;
17915;SDS011;9083;49.156;8.982;2022-10-17T08:08:46;5.40;;;3.00;;
17915;SDS011;9083;49.156;8.982;2022-10-17T08:11:13;3.93;;;3.17;;
17915;SDS011;9083;49.156;8.982;2022-10-17T08:13:40;7.13;;;2.57;;
17915;SDS011;9083;49.156;8.982;2022-10-17T08:16:07;5.00;;;3.37;;
17915;SDS011;9083;49.156;8.982;2022-10-17T08:18:33;6.27;;;3.13;;
17915;SDS011;9083;49.156;8.982;2022-10-17T08:21:00;7.37;;;3.00;;
17915;SDS011;9083;49.156;8.982;2022-10-17T08:23:28;5.07;;;3.03;;
17915;SDS011;9083;49.156;8.982;2022-10-17T08:25:57;8.23;;;3.03;;
17915;SDS011;9083;49.156;8.982;2022-10-17T08:28:24;3.17;;;2.63;;
17915;SDS011;9083;49.156;8.982;2022-10-17T08:30:50;6.63;;;3.00;;
17915;SDS011;9083;49.156;8.982;2022-10-17T08:33:16;3.83;;;2.90;;
17915;SDS011;9083;49.156;8.982;2022-10-17T08:35:43;2.83;;;2.53;;
17915;SDS011;9083;49.156;8.982;2022-10-17T08:38:09;6.53;;;3.17;;
17915;SDS011;9083;49.156;8.982;2022-10-17T08:40:37;7.17;;;3.10;;
17915;SDS011;9083;49.156;8.982;2022-10-17T08:43:19;4.80;;;2.73;;
17915;SDS011;9083;49.156;8.982;2022-10-17T08:45:50;5.43;;;2.50;;
17915;SDS011;9083;49.156;8.982;2022-10-17T08:48:18;6.87;;;2.87;;
17915;SDS011;9083;49.156;8.982;2022-10-17T08:50:46;14.47;;;3.57;;
17915;SDS011;9083;49.156;8.982;2022-10-17T08:53:14;7.83;;;2.37;;
17915;SDS011;9083;49.156;8.982;2022-10-17T08:55:45;9.77;;;3.23;;
17915;SDS011;9083;49.156;8.982;2022-10-17T08:58:12;5.23;;;3.27;;
17915;SDS011;9083;49.156;8.982;2022-10-17T09:00:40;8.33;;;3.10;;
17915;SDS011;9083;49.156;8.982;2022-10-17T09:03:12;8.30;;;4.83;;
17915;SDS011;9083;49.156;8.982;2022-10-17T09:05:41;12.03;;;4.70;;
17915;SDS011;9083;49.156;8.982;2022-10-17T09:08:12;5.60;;;3.00;;
17915;SDS011;9083;49.156;8.982;2022-10-17T09:10:43;4.67;;;3.13;;
17915;SDS011;9083;49.156;8.982;2022-10-17T09:13:17;6.87;;;3.10;;
17915;SDS011;9083;49.156;8.982;2022-10-17T09:18:32;3.67;;;2.67;;
17915;SDS011;9083;49.156;8.982;2022-10-17T09:21:12;10.37;;;3.17;;
17915;SDS011;9083;49.156;8.982;2022-10-17T09:23:40;4.23;;;2.50;;
17915;SDS011;9083;49.156;8.982;2022-10-17T09:26:08;5.07;;;2.70;;
17915;SDS011;9083;49.156;8.982;2022-10-17T09:28:38;7.50;;;2.60;;
17915;SDS011;9083;49.156;8.982;2022-10-17T09:31:06;7.80;;;2.33;;
17915;SDS011;9083;49.156;8.982;2022-10-17T09:33:37;5.83;;;3.17;;
17915;SDS011;9083;49.156;8.982;2022-10-17T09:36:07;3.63;;;2.80;;
17915;SDS011;9083;49.156;8.982;2022-10-17T09:38:37;4.50;;;2.57;;
17915;SDS011;9083;49.156;8.982;2022-10-17T09:41:04;10.40;;;3.17;;
17915;SDS011;9083;49.156;8.982;2022-10-17T09:43:32;4.47;;;2.80;;
17915;SDS011;9083;49.156;8.982;2022-10-17T09:46:03;7.67;;;3.20;;
17915;SDS011;9083;49.156;8.982;2022-10-17T09:48:31;6.37;;;2.50;;
17915;SDS011;9083;49.156;8.982;2022-10-17T09:50:59;6.43;;;2.57;;
17915;SDS011;9083;49.156;8.982;2022-10-17T09:53:26;6.40;;;3.13;;
17915;SDS011;9083;49.156;8.982;2022-10-17T09:55:55;6.40;;;2.40;;
17915;SDS011;9083;49.156;8.982;2022-10-17T09:58:22;7.87;;;2.40;;
17915;SDS011;9083;49.156;8.982;2022-10-17T10:00:49;3.47;;;3.03;;
17915;SDS011;9083;49.156;8.982;2022-10-17T10:03:18;7.73;;;2.47;;
17915;SDS011;9083;49.156;8.982;2022-10-17T10:08:30;4.83;;;2.93;;
17915;SDS011;9083;49.156;8.982;2022-10-17T10:10:58;4.77;;;2.40;;
17915;SDS011;9083;49.156;8.982;2022-10-17T10:13:27;3.27;;;2.37;;
17915;SDS011;9083;49.156;8.982;2022-10-17T10:15:54;7.20;;;2.93;;
17915;SDS011;9083;49.156;8.982;2022-10-17T10:18:39;4.07;;;2.43;;
17915;SDS011;9083;49.156;8.982;2022-10-17T10:21:07;6.67;;;2.87;;
17915;SDS011;9083;49.156;8.982;2022-10-17T10:23:34;9.43;;;3.13;;
17915;SDS011;9083;49.156;8.982;2022-10-17T10:26:04;6.10;;;3.00;;
17915;SDS011;9083;49.156;8.982;2022-10-17T10:28:32;4.77;;;2.40;;
17915;SDS011;9083;49.156;8.982;2022-10-17T10:31:01;7.47;;;3.07;;
17915;SDS011;9083;49.156;8.982;2022-10-17T10:33:28;6.37;;;2.77;;
17915;SDS011;9083;49.156;8.982;2022-10-17T10:35:57;6.93;;;2.53;;
17915;SDS011;9083;49.156;8.982;2022-10-17T10:38:26;12.13;;;3.90;;
17915;SDS011;9083;49.156;8.982;2022-10-17T10:40:53;8.80;;;2.07;;
17915;SDS011;9083;49.156;8.982;2022-10-17T10:43:21;18.67;;;3.00;;
17915;SDS011;9083;49.156;8.982;2022-10-17T10:45:48;12.77;;;2.70;;
17915;SDS011;9083;49.156;8.982;2022-10-17T10:48:18;13.07;;;2.70;;
17915;SDS011;9083;49.156;8.982;2022-10-17T10:50:46;8.30;;;3.17;;
17915;SDS011;9083;49.156;8.982;2022-10-17T10:53:23;11.80;;;2.93;;
17915;SDS011;9083;49.156;8.982;2022-10-17T10:55:51;14.57;;;3.47;;
17915;SDS011;9083;49.156;8.982;2022-10-17T10:58:25;19.87;;;3.00;;
17915;SDS011;9083;49.156;8.982;2022-10-17T11:00:53;16.90;;;4.03;;
17915;SDS011;9083;49.156;8.982;2022-10-17T11:03:22;5.07;;;2.80;;
17915;SDS011;9083;49.156;8.982;2022-10-17T11:05:53;7.10;;;2.50;;
17915;SDS011;9083;49.156;8.982;2022-10-17T11:08:25;8.13;;;2.50;;
17915;SDS011;9083;49.156;8.982;2022-10-17T11:11:03;7.33;;;3.23;;
17915;SDS011;9083;49.156;8.982;2022-10-17T11:13:33;23.53;;;5.00;;
17915;SDS011;9083;49.156;8.982;2022-10-17T11:16:03;7.17;;;2.47;;
17915;SDS011;9083;49.156;8.982;2022-10-17T11:18:33;8.73;;;2.23;;
17915;SDS011;9083;49.156;8.982;2022-10-17T11:21:02;6.47;;;2.90;;
17915;SDS011;9083;49.156;8.982;2022-10-17T11:23:31;15.37;;;3.30;;
17915;SDS011;9083;49.156;8.982;2022-10-17T11:26:00;4.37;;;2.57;;
17915;SDS011;9083;49.156;8.982;2022-10-17T11:28:27;5.57;;;2.70;;
17915;SDS011;9083;49.156;8.982;2022-10-17T11:30:55;16.93;;;4.23;;
17915;SDS011;9083;49.156;8.982;2022-10-17T11:33:24;35.27;;;4.90;;
17915;SDS011;9083;49.156;8.982;2022-10-17T11:35:53;24.13;;;4.50;;
17915;SDS011;9083;49.156;8.982;2022-10-17T11:38:21;13.20;;;3.23;;
17915;SDS011;9083;49.156;8.982;2022-10-17T11:40:52;11.80;;;3.00;;
17915;SDS011;9083;49.156;8.982;2022-10-17T11:43:22;16.43;;;3.70;;
17915;SDS011;9083;49.156;8.982;2022-10-17T11:45:52;9.30;;;2.97;;
17915;SDS011;9083;49.156;8.982;2022-10-17T11:48:21;17.07;;;3.37;;
17915;SDS011;9083;49.156;8.982;2022-10-17T11:50:50;6.33;;;2.50;;
17915;SDS011;9083;49.156;8.982;2022-10-17T11:53:22;6.67;;;3.10;;
17915;SDS011;9083;49.156;8.982;2022-10-17T11:55:49;12.57;;;2.73;;
17915;SDS011;9083;49.156;8.982;2022-10-17T11:58:22;7.03;;;2.50;;
17915;SDS011;9083;49.156;8.982;2022-10-17T12:00:57;8.13;;;2.90;;
17915;SDS011;9083;49.156;8.982;2022-10-17T12:03:30;19.47;;;2.80;;
17915;SDS011;9083;49.156;8.982;2022-10-17T12:05:58;11.40;;;3.00;;
17915;SDS011;9083;49.156;8.982;2022-10-17T12:08:28;10.13;;;2.50;;
17915;SDS011;9083;49.156;8.982;2022-10-17T12:10:58;2.67;;;2.17;;
17915;SDS011;9083;49.156;8.982;2022-10-17T12:21:55;4.97;;;2.43;;
17915;SDS011;9083;49.156;8.982;2022-10-17T12:24:26;5.00;;;2.40;;
17915;SDS011;9083;49.156;8.982;2022-10-17T12:26:54;9.43;;;2.53;;
17915;SDS011;9083;49.156;8.982;2022-10-17T12:29:23;15.77;;;2.53;;
17915;SDS011;9083;49.156;8.982;2022-10-17T12:31:51;4.20;;;2.50;;
17915;SDS011;9083;49.156;8.982;2022-10-17T12:34:17;5.17;;;2.33;;
17915;SDS011;9083;49.156;8.982;2022-10-17T12:36:45;5.23;;;2.20;;
17915;SDS011;9083;49.156;8.982;2022-10-17T12:41:58;4.97;;;2.27;;
17915;SDS011;9083;49.156;8.982;2022-10-17T12:44:34;7.57;;;2.20;;
17915;SDS011;9083;49.156;8.982;2022-10-17T12:49:43;10.70;;;2.53;;
17915;SDS011;9083;49.156;8.982;2022-10-17T12:52:20;14.23;;;2.97;;
17915;SDS011;9083;49.156;8.982;2022-10-17T12:54:50;5.87;;;2.40;;
17915;SDS011;9083;49.156;8.982;2022-10-17T12:57:20;2.67;;;2.27;;
17915;SDS011;9083;49.156;8.982;2022-10-17T12:59:47;7.17;;;1.87;;
17915;SDS011;9083;49.156;8.982;2022-10-17T13:02:16;7.23;;;1.93;;
17915;SDS011;9083;49.156;8.982;2022-10-17T13:04:44;15.80;;;2.90;;
17915;SDS011;9083;49.156;8.982;2022-10-17T13:07:12;5.27;;;2.17;;
17915;SDS011;9083;49.156;8.982;2022-10-17T13:09:42;4.13;;;2.03;;
17915;SDS011;9083;49.156;8.982;2022-10-17T13:12:10;18.97;;;2.77;;
17915;SDS011;9083;49.156;8.982;2022-10-17T13:14:39;5.30;;;2.13;;
17915;SDS011;9083;49.156;8.982;2022-10-17T13:17:12;2.50;;;2.07;;
17915;SDS011;9083;49.156;8.982;2022-10-17T13:19:45;10.50;;;1.90;;
17915;SDS011;9083;49.156;8.982;2022-10-17T13:22:13;5.27;;;1.90;;
17915;SDS011;9083;49.156;8.982;2022-10-17T13:24:40;2.90;;;2.30;;
17915;SDS011;9083;49.156;8.982;2022-10-17T13:27:20;6.13;;;2.43;;
17915;SDS011;9083;49.156;8.982;2022-10-17T13:29:48;7.27;;;2.07;;
17915;SDS011;9083;49.156;8.982;2022-10-17T13:32:17;11.00;;;2.10;;
17915;SDS011;9083;49.156;8.982;2022-10-17T13:34:44;4.70;;;2.10;;
17915;SDS011;9083;49.156;8.982;2022-10-17T13:37:11;2.20;;;1.97;;
17915;SDS011;9083;49.156;8.982;2022-10-17T13:39:39;2.37;;;1.80;;
17915;SDS011;9083;49.156;8.982;2022-10-17T13:42:06;13.47;;;2.60;;
17915;SDS011;9083;49.156;8.982;2022-10-17T13:44:40;7.33;;;1.63;;
17915;SDS011;9083;49.156;8.982;2022-10-17T13:47:17;5.23;;;2.50;;
17915;SDS011;9083;49.156;8.982;2022-10-17T13:49:45;9.00;;;2.40;;
17915;SDS011;9083;49.156;8.982;2022-10-17T13:52:14;2.17;;;1.97;;
17915;SDS011;9083;49.156;8.982;2022-10-17T13:54:43;15.73;;;1.90;;
17915;SDS011;9083;49.156;8.982;2022-10-17T13:57:17;9.67;;;2.40;;
17915;SDS011;9083;49.156;8.982;2022-10-17T13:59:44;10.20;;;2.50;;
17915;SDS011;9083;49.156;8.982;2022-10-17T14:02:15;4.47;;;2.00;;
17915;SDS011;9083;49.156;8.982;2022-10-17T14:04:42;6.17;;;2.23;;
17915;SDS011;9083;49.156;8.982;2022-10-17T14:07:14;12.27;;;2.63;;
17915;SDS011;9083;49.156;8.982;2022-10-17T14:09:45;7.50;;;2.53;;
17915;SDS011;9083;49.156;8.982;2022-10-17T14:12:11;4.80;;;2.50;;
17915;SDS011;9083;49.156;8.982;2022-10-17T14:14:41;4.53;;;2.30;;
17915;SDS011;9083;49.156;8.982;2022-10-17T14:17:12;14.33;;;2.37;;
17915;SDS011;9083;49.156;8.982;2022-10-17T14:19:40;3.00;;;2.30;;
17915;SDS011;9083;49.156;8.982;2022-10-17T14:22:16;9.33;;;2.67;;
17915;SDS011;9083;49.156;8.982;2022-10-17T14:24:43;3.33;;;2.40;;
17915;SDS011;9083;49.156;8.982;2022-10-17T14:27:23;2.83;;;2.03;;
17915;SDS011;9083;49.156;8.982;2022-10-17T14:29:50;8.47;;;2.47;;
17915;SDS011;9083;49.156;8.982;2022-10-17T14:32:17;7.30;;;2.00;;
17915;SDS011;9083;49.156;8.982;2022-10-17T14:34:47;6.50;;;2.27;;
17915;SDS011;9083;49.156;8.982;2022-10-17T14:37:19;11.20;;;3.37;;
17915;SDS011;9083;49.156;8.982;2022-10-17T14:39:50;8.83;;;3.10;;
17915;SDS011;9083;49.156;8.982;2022-10-17T14:42:19;4.20;;;2.07;;
17915;SDS011;9083;49.156;8.982;2022-10-17T14:44:47;6.23;;;2.00;;
17915;SDS011;9083;49.156;8.982;2022-10-17T14:47:15;6.13;;;2.40;;
17915;SDS011;9083;49.156;8.982;2022-10-17T14:49:42;3.27;;;2.00;;
17915;SDS011;9083;49.156;8.982;2022-10-17T14:52:11;10.27;;;2.20;;
17915;SDS011;9083;49.156;8.982;2022-10-17T14:54:37;3.40;;;2.30;;
17915;SDS011;9083;49.156;8.982;2022-10-17T14:57:07;5.47;;;2.40;;
17915;SDS011;9083;49.156;8.982;2022-10-17T14:59:38;4.73;;;2.23;;
17915;SDS011;9083;49.156;8.982;2022-10-17T15:02:05;9.63;;;2.47;;
17915;SDS011;9083;49.156;8.982;2022-10-17T15:04:31;6.80;;;1.90;;
17915;SDS011;9083;49.156;8.982;2022-10-17T15:06:57;11.70;;;2.83;;
17915;SDS011;9083;49.156;8.982;2022-10-17T15:09:25;8.37;;;2.20;;
17915;SDS011;9083;49.156;8.982;2022-10-17T15:11:53;4.43;;;2.30;;
17915;SDS011;9083;49.156;8.982;2022-10-17T15:14:19;8.83;;;2.53;;
17915;SDS011;9083;49.156;8.982;2022-10-17T15:16:46;6.00;;;2.60;;
17915;SDS011;9083;49.156;8.982;2022-10-17T15:19:12;5.83;;;2.10;;
17915;SDS011;9083;49.156;8.982;2022-10-17T15:21:39;2.13;;;1.93;;
17915;SDS011;9083;49.156;8.982;2022-10-17T15:24:05;5.87;;;2.10;;
17915;SDS011;9083;49.156;8.982;2022-10-17T15:26:33;4.37;;;2.00;;
17915;SDS011;9083;49.156;8.982;2022-10-17T15:29:00;8.37;;;2.00;;